createdAt,value
2022-09-10T00:00:10.334Z,17.21
2022-09-10T00:05:12.215Z,17.22
2022-09-10T00:10:12.504Z,17.26
2022-09-10T00:15:12.484Z,17.31
2022-09-10T00:20:12.474Z,17.34
2022-09-10T00:25:12.880Z,17.35
2022-09-10T00:30:12.648Z,17.36
2022-09-10T00:35:12.511Z,17.37
2022-09-10T00:40:12.480Z,17.39
2022-09-10T00:45:12.443Z,17.41
2022-09-10T00:50:13.255Z,17.42
2022-09-10T00:55:14.211Z,17.41
2022-09-10T01:00:14.954Z,17.41
2022-09-10T01:05:14.457Z,17.43
2022-09-10T01:10:14.543Z,17.45
2022-09-10T01:15:15.664Z,17.44
2022-09-10T01:20:16.054Z,17.35
2022-09-10T01:25:15.757Z,17.20
2022-09-10T01:30:16.124Z,17.05
2022-09-10T01:35:17.058Z,16.93
2022-09-10T01:40:17.419Z,16.82
2022-09-10T01:45:19.403Z,16.74
2022-09-10T01:50:19.685Z,16.69
2022-09-10T01:55:22.121Z,16.65
2022-09-10T02:00:22.593Z,16.62
2022-09-10T02:05:24.997Z,16.61
2022-09-10T02:10:24.828Z,16.60
2022-09-10T02:15:26.389Z,16.60
2022-09-10T02:20:26.596Z,16.59
2022-09-10T02:25:28.520Z,16.58
2022-09-10T02:30:28.973Z,16.58
2022-09-10T02:35:28.628Z,16.58
2022-09-10T02:40:31.034Z,16.58
2022-09-10T02:45:30.664Z,16.59
2022-09-10T02:50:30.748Z,16.61
2022-09-10T02:55:31.018Z,16.62
2022-09-10T03:00:31.476Z,16.63
2022-09-10T03:05:31.775Z,16.63
2022-09-10T03:10:31.836Z,16.61
2022-09-10T03:15:31.540Z,16.53
2022-09-10T03:20:31.603Z,16.46
2022-09-10T03:25:31.753Z,16.42
2022-09-10T03:30:32.528Z,16.41
2022-09-10T03:35:34.517Z,16.41
2022-09-10T03:40:35.364Z,16.42
2022-09-10T03:45:37.365Z,16.42
2022-09-10T03:50:38.014Z,16.43
2022-09-10T03:55:37.662Z,16.44
2022-09-10T04:00:39.305Z,16.44
2022-09-10T04:05:40.179Z,16.45
2022-09-10T04:10:39.814Z,16.46
2022-09-10T04:15:39.667Z,16.47
2022-09-10T04:20:41.911Z,16.48
2022-09-10T04:25:42.300Z,16.49
2022-09-10T04:30:43.888Z,16.51
2022-09-10T04:35:45.496Z,16.53
2022-09-10T04:40:47.413Z,16.54
2022-09-10T04:45:47.761Z,16.56
2022-09-10T04:51:14.699Z,16.57
2022-09-10T04:55:52.809Z,16.58
2022-09-10T05:00:53.990Z,16.60
2022-09-10T05:05:53.918Z,16.62
2022-09-10T05:10:53.758Z,16.68
2022-09-10T05:15:54.837Z,16.77
2022-09-10T05:20:54.770Z,16.88
2022-09-10T05:25:56.720Z,16.96
2022-09-10T05:30:58.567Z,16.99
2022-09-10T05:35:59.159Z,16.99
2022-09-10T05:41:00.091Z,16.99
2022-09-10T05:45:59.852Z,17.00
2022-09-10T05:51:01.325Z,17.00
2022-09-10T05:56:02.902Z,16.99
2022-09-10T06:01:03.164Z,16.98
2022-09-10T06:06:04.570Z,16.97
2022-09-10T06:11:07.248Z,17.00
2022-09-10T06:16:07.942Z,17.08
2022-09-10T06:21:08.687Z,17.27
2022-09-10T06:26:10.644Z,17.47
2022-09-10T06:31:13.537Z,17.58
2022-09-10T06:36:14.606Z,17.59
2022-09-10T06:41:17.482Z,17.53
2022-09-10T06:47:02.915Z,17.43
2022-09-10T06:51:24.983Z,17.35
2022-09-10T06:56:25.423Z,17.33
2022-09-10T07:01:30.590Z,17.39
2022-09-10T07:06:35.008Z,17.48
2022-09-10T07:11:41.169Z,17.53
2022-09-10T07:16:41.616Z,17.59
2022-09-10T07:21:43.666Z,17.71
2022-09-10T07:26:44.521Z,17.84
2022-09-10T07:31:48.530Z,17.97
2022-09-10T07:36:49.357Z,18.14
2022-09-10T07:41:51.716Z,18.36
2022-09-10T07:46:52.811Z,18.55
2022-09-10T07:51:59.068Z,18.58
2022-09-10T07:56:56.428Z,18.44
2022-09-10T08:01:57.402Z,18.29
2022-09-10T08:06:59.435Z,18.21
2022-09-10T08:12:00.083Z,18.15
2022-09-10T08:17:00.939Z,18.03
2022-09-10T08:22:02.744Z,17.93
2022-09-10T08:27:03.671Z,18.07
2022-09-10T08:32:05.632Z,18.48
2022-09-10T08:37:07.376Z,18.97
2022-09-10T08:42:09.662Z,19.58
2022-09-10T08:47:10.144Z,20.41
2022-09-10T08:52:10.934Z,20.97
2022-09-10T08:57:11.869Z,21.21
2022-09-10T09:02:26.285Z,21.34
2022-09-10T09:07:15.698Z,21.27
2022-09-10T09:12:16.835Z,21.39
2022-09-10T09:17:17.509Z,21.84
2022-09-10T09:22:19.201Z,22.32
2022-09-10T09:27:21.561Z,22.58
2022-09-10T09:32:22.344Z,22.34
2022-09-10T09:37:22.464Z,21.66
2022-09-10T09:42:23.242Z,20.86
2022-09-10T09:47:23.556Z,20.18
2022-09-10T09:52:24.425Z,19.60
2022-09-10T09:57:23.933Z,19.06
2022-09-10T10:02:23.899Z,18.72
2022-09-10T10:07:23.850Z,18.65
2022-09-10T10:12:24.088Z,18.77
2022-09-10T10:17:23.905Z,18.87
2022-09-10T10:22:24.107Z,18.88
2022-09-10T10:27:23.943Z,18.76
2022-09-10T10:32:23.897Z,18.59
2022-09-10T10:37:24.005Z,18.50
2022-09-10T10:42:24.197Z,18.44
2022-09-10T10:47:24.048Z,18.40
2022-09-10T10:52:24.211Z,18.31
2022-09-10T10:57:24.057Z,18.22
2022-09-10T11:02:24.050Z,18.23
2022-09-10T11:07:23.945Z,18.33
2022-09-10T11:12:24.515Z,18.41
2022-09-10T11:17:23.966Z,18.45
2022-09-10T11:22:23.964Z,18.42
2022-09-10T11:27:24.089Z,18.26
2022-09-10T11:32:25.814Z,18.01
2022-09-10T11:37:26.006Z,17.78
2022-09-10T11:42:25.986Z,17.68
2022-09-10T11:47:25.988Z,17.81
2022-09-10T11:52:26.233Z,18.20
2022-09-10T11:57:26.044Z,18.90
2022-09-10T12:02:26.060Z,19.68
2022-09-10T12:07:26.154Z,20.02
2022-09-10T12:12:25.954Z,20.02
2022-09-10T12:17:26.791Z,20.09
2022-09-10T12:22:27.047Z,20.29
2022-09-10T12:27:29.019Z,20.68
2022-09-10T12:32:29.171Z,21.20
2022-09-10T12:37:28.990Z,21.39
2022-09-10T12:42:29.033Z,21.37
2022-09-10T12:47:29.086Z,21.60
2022-09-10T12:52:29.013Z,22.07
2022-09-10T12:57:29.251Z,22.49
2022-09-10T13:02:29.311Z,22.49
2022-09-10T13:07:28.976Z,22.20
2022-09-10T13:12:29.039Z,21.95
2022-09-10T13:17:29.009Z,22.15
2022-09-10T13:22:29.491Z,22.54
2022-09-10T13:27:29.099Z,22.59
2022-09-10T13:32:29.100Z,22.53
2022-09-10T13:37:30.903Z,22.36
2022-09-10T13:42:35.463Z,22.09
2022-09-10T13:47:33.032Z,21.78
2022-09-10T13:52:34.020Z,21.37
2022-09-10T13:57:34.151Z,20.95
2022-09-10T14:02:34.848Z,20.68
2022-09-10T14:07:35.378Z,20.58
2022-09-10T14:12:35.111Z,20.63
2022-09-10T14:17:35.041Z,20.85
2022-09-10T14:22:35.068Z,21.08
2022-09-10T14:27:35.266Z,21.33
2022-09-10T14:32:36.852Z,21.70
2022-09-10T14:37:37.897Z,21.85
2022-09-10T14:42:38.088Z,21.68
2022-09-10T14:47:38.150Z,21.39
2022-09-10T14:52:38.566Z,21.07
2022-09-10T14:57:38.119Z,20.75
2022-09-10T15:02:38.127Z,20.52
2022-09-10T15:07:38.217Z,20.46
2022-09-10T15:12:38.200Z,20.45
2022-09-10T15:17:38.140Z,20.37
2022-09-10T15:22:39.354Z,20.21
2022-09-10T15:27:39.309Z,20.03
2022-09-10T15:32:39.957Z,19.97
2022-09-10T15:37:40.095Z,20.04
2022-09-10T15:42:40.154Z,20.17
2022-09-10T15:47:41.510Z,20.29
2022-09-10T15:52:41.129Z,20.38
2022-09-10T15:57:41.184Z,20.39
2022-09-10T16:02:41.896Z,20.36
2022-09-10T16:07:42.167Z,20.36
2022-09-10T16:12:42.127Z,20.36
2022-09-10T16:17:42.122Z,20.32
2022-09-10T16:22:42.192Z,20.25
2022-09-10T16:27:43.417Z,20.13
2022-09-10T16:32:43.183Z,19.97
2022-09-10T16:37:43.724Z,19.79
2022-09-10T16:42:43.243Z,19.61
2022-09-10T16:47:43.226Z,19.48
2022-09-10T16:52:43.232Z,19.36
2022-09-10T16:57:43.320Z,19.23
2022-09-10T17:02:43.515Z,19.10
2022-09-10T17:07:43.273Z,18.96
2022-09-10T17:12:43.302Z,18.82
2022-09-10T17:17:43.145Z,18.70
2022-09-10T17:22:43.146Z,18.65
2022-09-10T17:27:43.282Z,18.64
2022-09-10T17:32:43.294Z,18.65
2022-09-10T17:37:43.308Z,18.64
2022-09-10T17:42:44.900Z,18.59
2022-09-10T17:47:45.251Z,18.52
2022-09-10T17:52:45.968Z,18.43
2022-09-10T17:57:46.280Z,18.38
2022-09-10T18:02:46.287Z,18.33
2022-09-10T18:07:46.799Z,18.29
2022-09-10T18:12:46.247Z,18.24
2022-09-10T18:17:50.624Z,18.20
2022-09-10T18:22:50.340Z,18.16
2022-09-10T18:27:53.996Z,18.12
2022-09-10T18:32:54.258Z,18.08
2022-09-10T18:37:56.186Z,18.08
2022-09-10T18:42:56.284Z,18.09
2022-09-10T18:47:56.235Z,18.09
2022-09-10T18:52:56.254Z,18.08
2022-09-10T18:57:57.112Z,18.02
2022-09-10T19:02:57.375Z,17.92
2022-09-10T19:07:57.236Z,17.80
2022-09-10T19:12:57.323Z,17.69
2022-09-10T19:17:57.354Z,17.61
2022-09-10T19:22:57.889Z,17.53
2022-09-10T19:27:58.419Z,17.46
2022-09-10T19:32:58.323Z,17.39
2022-09-10T19:37:59.404Z,17.32
2022-09-10T19:43:00.098Z,17.28
2022-09-10T19:48:00.314Z,17.25
2022-09-10T19:53:00.272Z,17.25
2022-09-10T19:58:01.113Z,17.26
2022-09-10T20:03:01.670Z,17.28
2022-09-10T20:08:01.376Z,17.29
2022-09-10T20:13:01.328Z,17.28
2022-09-10T20:18:01.382Z,17.24
2022-09-10T20:23:01.393Z,17.20
2022-09-10T20:28:01.478Z,17.16
2022-09-10T20:33:01.337Z,17.12
2022-09-10T20:38:01.315Z,17.09
2022-09-10T20:43:01.294Z,17.07
2022-09-10T20:48:02.409Z,17.06
2022-09-10T20:53:02.306Z,17.06
2022-09-10T20:58:02.480Z,17.07
2022-09-10T21:03:03.264Z,17.07
2022-09-10T21:08:03.330Z,17.08
2022-09-10T21:13:03.916Z,17.08
2022-09-10T21:18:03.425Z,17.08
2022-09-10T21:23:03.365Z,17.09
2022-09-10T21:28:03.426Z,17.10
2022-09-10T21:33:03.413Z,17.12
2022-09-10T21:38:03.365Z,17.15
2022-09-10T21:43:05.157Z,17.17
2022-09-10T21:48:04.772Z,17.19
2022-09-10T21:53:04.791Z,17.21
2022-09-10T21:58:04.891Z,17.22
2022-09-10T22:03:05.091Z,17.22
2022-09-10T22:08:06.705Z,17.21
2022-09-10T22:13:06.785Z,17.18
2022-09-10T22:18:07.800Z,17.13
2022-09-10T22:23:07.966Z,17.07
2022-09-10T22:28:07.859Z,17.01
2022-09-10T22:33:07.961Z,16.97
2022-09-10T22:38:09.366Z,16.94
2022-09-10T22:43:08.771Z,16.90
2022-09-10T22:48:09.282Z,16.86
2022-09-10T22:53:08.826Z,16.82
2022-09-10T22:58:09.731Z,16.77
2022-09-10T23:03:11.019Z,16.73
2022-09-10T23:08:10.865Z,16.72
2022-09-10T23:13:10.914Z,16.75
2022-09-10T23:18:10.818Z,16.77
2022-09-10T23:23:10.855Z,16.79
2022-09-10T23:28:11.384Z,16.80
2022-09-10T23:33:10.857Z,16.76
2022-09-10T23:38:10.865Z,16.65
2022-09-10T23:43:11.429Z,16.52
2022-09-10T23:48:10.954Z,16.40
2022-09-10T23:53:10.990Z,16.31
2022-09-10T23:58:10.983Z,16.25
